Latest Weather Observations for Warruwi

IDD60801

Issued at 3:01 pm CST Sunday 14 February 2016 (issued every 30 minutes, with the page automatically refreshed every 10 minutes)

About weather observations | Map of weather stations | Latest weather observations for NT | Other Formats
Station Details ID: 014401 Name: WARRUWI AIRPORT Lat: -11.65 Lon: 133.38 Height: 19.2 m
Data from the previous 72 hours. | See also: Recent months at Warruwi
Date/Time
CST
Temp
°C
App
Temp
°C
Dew
Point
Rel
Hum
%
Delta-T
°C
Wind Press
QNH
hPa
Press
MSL
hPa
Rain
since 9 am
mm
Dir
 
Spd
km/h
Gust
km/h
Spd
kts
Gust
kts
14/03:00pm 32.8 38.7 27.3 73 4.0 NNW 11 19 6 10 1006.3 1006.1 0.0
14/02:30pm 33.0 38.9 26.8 70 4.5 NNW 9 17 5 9 1006.8 1006.6 0.0
14/02:00pm 32.9 38.9 27.4 73 4.0 N 11 17 6 9 1007.1 1006.9 0.0
14/01:30pm 33.4 39.3 26.7 68 4.8 NW 9 19 5 10 1007.5 1007.3 0.0
14/01:00pm 33.8 39.5 26.5 65 5.3 WNW 9 13 5 7 1007.8 1007.6 0.0
14/12:30pm 33.2 38.9 26.5 68 4.8 WNW 9 13 5 7 1008.2 1008.0 0.0
14/12:00pm 32.4 38.4 27.4 75 3.6 WNW 11 17 6 9 1008.5 1008.3 0.0
14/11:30am 31.9 37.6 27.1 76 3.5 WNW 11 17 6 9 1008.7 1008.5 0.0
14/11:00am 31.4 37.0 26.9 77 3.2 W 11 17 6 9 1008.9 1008.7 0.0
14/10:30am 31.2 37.1 26.7 77 3.2 WNW 9 13 5 7 1009.6 1009.4 0.0
14/10:00am 30.9 36.7 26.6 78 3.1 W 9 11 5 6 1009.9 1009.7 0.0
14/09:30am 30.9 36.7 26.6 78 3.1 WSW 9 15 5 8 1009.8 1009.6 0.0
14/09:00am 30.2 35.5 25.9 78 3.1 WSW 9 13 5 7 1009.6 1009.4 5.0
14/08:30am 29.7 35.2 26.1 81 2.6 W 9 13 5 7 1009.5 1009.3 4.8
14/08:00am 29.3 34.9 26.3 84 2.1 WSW 9 13 5 7 1009.2 1009.0 4.8
14/07:30am 28.8 34.6 26.6 88 1.6 W 9 13 5 7 1008.9 1008.7 4.8
14/07:00am 28.2 34.0 26.6 91 1.1 WSW 9 15 5 8 1008.5 1008.3 4.8
14/06:30am 28.3 33.7 27.2 94 0.8 W 13 17 7 9 1008.2 1008.0 4.8
14/06:00am 28.3 34.1 27.2 94 0.8 W 11 13 6 7 1008.1 1007.9 4.8
14/05:30am 28.2 33.9 27.1 94 0.8 W 11 13 6 7 1007.8 1007.6 4.8
14/05:00am 28.3 34.1 27.2 94 0.8 W 11 15 6 8 1007.6 1007.4 4.8
14/04:30am 28.4 33.7 27.0 92 1.0 W 13 19 7 10 1007.6 1007.4 4.8
14/04:00am 28.5 34.1 26.9 91 1.1 W 11 17 6 9 1007.6 1007.4 4.8
14/03:30am 28.4 34.3 26.8 91 1.1 W 9 11 5 6 1007.6 1007.4 4.8
14/03:00am 28.5 33.8 26.5 89 1.4 W 11 15 6 8 1007.8 1007.6 4.8
14/02:30am 28.5 33.6 26.1 87 1.7 W 11 15 6 8 1008.2 1008.0 4.8
14/02:00am 28.5 34.0 26.1 87 1.7 W 9 13 5 7 1008.4 1008.2 4.8
14/01:30am 28.5 33.8 25.9 86 1.8 W 9 13 5 7 1008.6 1008.4 4.8
14/01:00am 28.3 33.5 25.7 86 1.8 W 9 11 5 6 1008.8 1008.6 4.8
14/12:30am 28.6 33.5 25.2 82 2.4 W 9 13 5 7 1009.1 1008.9 4.8
14/12:00am 28.5 33.1 24.7 80 2.7 WSW 9 13 5 7 1009.3 1009.1 4.8
 
Date/Time
CST
Temp
°C
App
Temp
°C
Dew
Point
Rel
Hum
%
Delta-T
°C
Wind Press
QNH
hPa
Press
MSL
hPa
Rain
since 9 am
mm
Dir
 
Spd
km/h
Gust
km/h
Spd
kts
Gust
kts
13/11:30pm 28.1 33.2 24.7 82 2.4 WSW 6 7 3 4 1009.5 1009.3 4.8
13/11:00pm 27.9 33.5 25.5 87 1.7 SW 6 7 3 4 1009.5 1009.3 4.8
13/10:30pm 27.7 34.6 25.7 89 1.4 CALM 0 4 0 2 1009.3 1009.1 4.8
13/10:00pm 28.0 34.2 25.2 85 2.0 WSW 2 2 1 1 1008.9 1008.7 4.8
13/09:30pm 28.4 33.7 25.0 82 2.4 SW 6 7 3 4 1008.8 1008.6 4.8
13/09:00pm 28.4 34.0 25.4 84 2.1 WSW 6 7 3 4 1008.4 1008.2 4.8
13/08:30pm 28.4 32.9 25.2 83 2.3 W 11 15 6 8 1008.1 1007.9 4.8
13/08:00pm 28.1 33.2 24.7 82 2.4 WNW 6 7 3 4 1007.7 1007.5 4.8
13/07:30pm 27.9 32.1 24.1 80 2.6 WNW 9 13 5 7 1007.6 1007.4 4.8
13/07:00pm 28.2 33.0 24.4 80 2.6 WNW 7 11 4 6 1007.6 1007.4 4.8
13/06:30pm 27.9 33.5 24.9 84 2.1 NW 4 6 2 3 1007.3 1007.1 4.8
13/06:00pm 27.8 33.6 25.2 86 1.8 NW 4 6 2 3 1006.9 1006.7 4.8
13/05:30pm 27.2 32.8 24.3 84 2.0 NNW 2 7 1 4 1006.7 1006.5 4.8
13/05:00pm 26.9 32.2 24.9 89 1.4 NW 6 13 3 7 1006.3 1006.1 4.8
13/04:30pm 26.5 27.5 22.1 77 3.0 SW 20 30 11 16 1006.8 1006.6 2.2
13/04:21pm 28.8 32.0 23.7 74 3.5 SW 13 24 7 13 1007.1 1006.9 0.6
13/04:00pm 34.1 39.2 24.9 58 6.5 NW 7 15 4 8 1006.4 1006.2 0.0
13/03:30pm 34.3 39.8 26.2 62 5.8 NNW 9 15 5 8 1006.3 1006.1 0.0
13/03:00pm 33.7 39.6 25.9 63 5.6 NW 6 11 3 6 1006.5 1006.3 0.0
13/02:30pm 32.7 37.8 25.0 64 5.5 WNW 7 13 4 7 1006.7 1006.5 0.0
13/02:00pm 32.0 38.0 26.3 72 4.1 WNW 7 13 4 7 1006.9 1006.7 0.0
13/01:30pm 31.9 38.1 26.7 74 3.8 SSW 7 11 4 6 1007.0 1006.8 0.0
13/01:00pm 31.4 37.5 25.7 71 4.1 SSW 4 7 2 4 1007.5 1007.3 0.0
13/12:30pm 31.4 37.5 26.2 74 3.7 WSW 6 11 3 6 1008.0 1007.8 0.0
13/12:00pm 31.1 36.9 26.1 75 3.6 W 7 13 4 7 1008.4 1008.2 0.0
13/11:30am 30.7 35.8 26.2 77 3.2 W 11 17 6 9 1008.9 1008.7 0.0
13/11:00am 30.4 34.0 25.0 73 3.8 W 15 20 8 11 1009.1 1008.9 0.0
13/10:30am 30.3 34.6 24.9 73 3.8 W 11 15 6 8 1009.6 1009.4 0.0
13/10:00am 29.7 35.1 25.2 77 3.2 SSW 6 7 3 4 1009.8 1009.6 0.0
13/09:30am 29.4 34.7 24.9 77 3.2 SW 6 9 3 5 1010.0 1009.8 0.0
13/09:00am 29.2 35.8 26.4 85 2.0 SW 4 7 2 4 1009.9 1009.7 0.0
13/08:30am 28.6 34.9 26.0 86 1.8 SW 4 4 2 2 1009.7 1009.5 0.0
13/08:00am 28.2 35.2 25.8 87 1.7 CALM 0 0 0 0 1009.3 1009.1 0.0
13/07:30am 27.7 34.9 26.1 91 1.1 CALM 0 0 0 0 1009.0 1008.8 0.0
13/07:00am 27.5 33.8 25.9 91 1.1 NNE 4 6 2 3 1009.1 1008.9 0.0
13/06:30am 27.4 34.1 25.4 89 1.4 CALM 0 4 0 2 1008.8 1008.6 0.0
13/06:00am 27.5 34.1 25.3 88 1.5 CALM 0 2 0 1 1008.8 1008.6 0.0
13/05:30am 27.6 34.3 25.4 88 1.5 CALM 0 0 0 0 1008.8 1008.6 0.0
13/05:00am 27.7 34.5 25.5 88 1.5 CALM 0 0 0 0 1008.0 1007.8 0.0
13/04:30am 27.6 34.4 25.6 89 1.4 CALM 0 4 0 2 1007.9 1007.7 0.0
13/04:00am 27.6 33.9 25.4 88 1.5 WSW 2 6 1 3 1007.6 1007.4 0.0
13/03:30am 27.9 33.3 25.5 87 1.7 SW 7 11 4 6 1007.1 1006.9 0.0
13/03:00am 28.4 34.7 25.4 84 2.1 SSW 2 4 1 2 1007.0 1006.8 0.0
13/02:30am 28.6 34.4 25.2 82 2.4 SSE 4 7 2 4 1007.0 1006.8 0.0
13/02:00am 28.5 35.0 25.1 82 2.4 CALM 0 4 0 2 1007.4 1007.2 0.0
13/01:30am 28.4 34.0 25.4 84 2.1 S 6 7 3 4 1008.0 1007.8 0.0
13/01:00am 28.4 34.0 25.8 86 1.8 SSE 7 11 4 6 1008.5 1008.3 0.0
13/12:30am 28.6 33.9 25.8 85 2.0 SSE 9 15 5 8 1008.8 1008.6 0.0
13/12:00am 29.1 35.4 26.5 86 1.9 S 6 9 3 5 1008.9 1008.7 0.0
 
Date/Time
CST
Temp
°C
App
Temp
°C
Dew
Point
Rel
Hum
%
Delta-T
°C
Wind Press
QNH
hPa
Press
MSL
hPa
Rain
since 9 am
mm
Dir
 
Spd
km/h
Gust
km/h
Spd
kts
Gust
kts
12/11:30pm 28.6 34.7 26.2 87 1.7 WNW 6 9 3 5 1008.4 1008.2 0.0
12/11:00pm 28.1 34.6 26.3 90 1.3 NW 4 6 2 3 1008.5 1008.3 0.0
12/10:30pm 28.3 35.7 26.5 90 1.3 CALM 0 0 0 0 1008.6 1008.4 0.0
12/10:00pm 28.2 35.4 26.2 89 1.4 CALM 0 0 0 0 1008.5 1008.3 0.0
12/09:30pm 28.2 35.2 25.8 87 1.7 CALM 0 0 0 0 1008.3 1008.1 0.0
12/09:00pm 28.2 35.0 25.6 86 1.8 CALM 0 0 0 0 1008.0 1007.8 0.0
12/08:30pm 28.4 35.2 25.6 85 2.0 CALM 0 4 0 2 1007.7 1007.5 0.0
12/08:00pm 28.3 33.7 25.1 83 2.2 SSW 6 7 3 4 1007.7 1007.5 0.0
12/07:30pm 28.5 34.3 25.7 85 2.0 SW 6 7 3 4 1007.2 1007.0 0.0
12/07:00pm 29.2 35.8 26.4 85 2.0 SW 4 6 2 3 1007.1 1006.9 0.0
12/06:30pm 29.7 36.6 26.3 82 2.4 NW 2 4 1 2 1006.8 1006.6 0.0
12/06:00pm 29.7 35.9 26.3 82 2.4 NW 6 11 3 6 1006.4 1006.2 0.0
12/05:30pm 29.8 36.0 26.4 82 2.4 NW 6 13 3 7 1006.2 1006.0 0.0
12/05:00pm 29.9 35.9 26.3 81 2.6 NW 7 15 4 8 1006.3 1006.1 0.0
12/04:30pm 30.2 36.2 26.4 80 2.7 NNW 7 17 4 9 1005.7 1005.5 0.0
12/04:00pm 30.4 35.6 26.3 79 2.9 NW 11 17 6 9 1005.9 1005.7 0.0
12/03:30pm 30.8 36.0 26.3 77 3.2 NW 11 20 6 11 1006.4 1006.2 0.0
12/03:00pm 30.3 35.0 25.6 76 3.3 NNW 11 19 6 10 1006.3 1006.1 0.0
12/02:30pm 31.4 36.2 25.7 71 4.1 NNW 11 24 6 13 1006.3 1006.1 0.0
12/02:00pm 31.8 36.4 25.4 69 4.5 N 11 20 6 11 1006.5 1006.3 0.0
12/01:30pm 31.6 36.5 24.7 67 4.9 N 7 13 4 7 1006.7 1006.5 0.0
12/01:00pm 31.5 37.0 24.6 67 4.8 N 4 9 2 5 1007.3 1007.1 0.0
12/12:30pm 31.3 37.1 25.2 70 4.3 NE 4 7 2 4 1007.9 1007.7 0.0
12/12:00pm 31.1 36.5 25.2 71 4.2 ENE 6 9 3 5 1008.1 1007.9 0.0
12/11:30am 31.1 37.2 25.0 70 4.3 ESE 2 6 1 3 1008.5 1008.3 0.0
12/11:00am 30.7 36.7 24.8 71 4.1 WSW 2 6 1 3 1008.7 1008.5 0.0
12/10:30am 30.1 35.5 25.2 75 3.5 WNW 6 9 3 5 1009.2 1009.0 0.0
12/10:00am 29.9 35.5 24.8 74 3.6 WNW 4 7 2 4 1009.1 1008.9 0.0
12/09:30am 29.6 35.9 24.7 75 3.4 CALM 0 6 0 3 1009.1 1008.9 0.0
12/09:00am 29.1 34.2 24.9 78 2.9 W 7 11 4 6 1009.3 1009.1 5.2
12/08:30am 28.3 33.3 24.5 80 2.6 SW 6 9 3 5 1009.2 1009.0 5.2
12/08:00am 27.8 33.1 25.0 85 2.0 SSW 6 9 3 5 1008.9 1008.7 5.2
12/07:30am 27.2 31.8 24.8 87 1.7 SW 9 15 5 8 1008.8 1008.6 5.2
12/07:00am 26.6 31.2 24.8 90 1.3 SW 9 15 5 8 1008.8 1008.6 5.2
12/06:30am 26.9 32.1 25.1 90 1.3 SW 7 11 4 6 1008.3 1008.1 5.2
12/06:00am 26.4 31.6 24.8 91 1.1 SW 6 9 3 5 1007.7 1007.5 5.2
12/05:30am 26.3 31.7 24.5 90 1.2 S 4 7 2 4 1007.4 1007.2 5.2
12/05:00am 26.2 30.1 24.2 89 1.4 SW 11 17 6 9 1007.5 1007.3 5.2
12/04:30am 26.2 31.2 24.8 92 1.0 SW 7 11 4 6 1007.7 1007.5 4.8
12/04:00am 26.8 32.9 25.0 90 1.3 S 2 6 1 3 1007.7 1007.5 4.4
12/03:30am 26.9 32.8 24.7 88 1.5 S 2 4 1 2 1007.4 1007.2 4.0
12/03:00am 26.8 32.2 25.2 91 1.1 SSW 6 9 3 5 1006.8 1006.6 4.0
12/02:30am 27.1 33.2 26.2 95 0.6 WNW 6 7 3 4 1006.2 1006.0 4.0
12/02:00am 26.8 32.6 25.2 91 1.1 SW 4 7 2 4 1007.0 1006.8 4.0
12/01:30am 27.4 35.0 26.7 96 0.5 CALM 0 0 0 0 1007.7 1007.5 4.0
12/01:00am 27.3 34.1 26.2 94 0.8 NW 2 4 1 2 1007.8 1007.6 4.0
12/12:30am 26.9 33.6 26.0 95 0.6 WNW 2 7 1 4 1007.9 1007.7 4.0
12/12:00am 27.5 30.2 25.1 87 1.7 W 20 32 11 17 1008.3 1008.1 0.0
 
Date/Time
CST
Temp
°C
App
Temp
°C
Dew
Point
Rel
Hum
%
Delta-T
°C
Wind Press
QNH
hPa
Press
MSL
hPa
Rain
since 9 am
mm
Dir
 
Spd
km/h
Gust
km/h
Spd
kts
Gust
kts
11/11:30pm 27.6 30.2 24.0 81 2.5 SSW 17 28 9 15 1008.7 1008.5 0.0
11/11:00pm 29.7 36.1 26.9 85 2.0 WNW 7 13 4 7 1008.7 1008.5 0.0
11/10:30pm 29.7 35.6 26.7 84 2.2 WNW 9 19 5 10 1008.5 1008.3 0.0
11/10:00pm 29.7 35.3 26.3 82 2.4 NW 9 19 5 10 1008.1 1007.9 0.0
11/09:30pm 29.9 35.6 25.9 79 2.8 NW 7 13 4 7 1007.6 1007.4 0.0
11/09:00pm 29.6 35.1 25.6 79 2.8 NW 7 13 4 7 1007.3 1007.1 0.0
11/08:30pm 29.7 35.7 26.3 82 2.4 NW 7 13 4 7 1007.0 1006.8 0.0
11/08:00pm 29.7 35.7 26.1 81 2.6 NNW 6 13 3 7 1006.3 1006.1 0.0
11/07:30pm 29.9 35.6 25.9 79 2.8 NNW 7 13 4 7 1006.1 1005.9 0.0
11/07:00pm 30.3 35.4 25.6 76 3.3 NNW 9 19 5 10 1005.5 1005.3 0.0
11/06:30pm 31.2 35.8 24.8 69 4.5 NNW 9 17 5 9 1005.1 1004.9 0.0
11/06:00pm 31.5 36.5 25.4 70 4.3 N 9 17 5 9 1004.7 1004.5 0.0
11/05:30pm 32.1 37.1 25.4 67 4.8 N 9 19 5 10 1004.4 1004.2 0.0
11/05:00pm 31.6 35.8 24.7 67 4.8 N 11 19 6 10 1004.3 1004.1 0.0
11/04:30pm 31.6 35.4 24.7 67 4.9 NNW 13 20 7 11 1004.3 1004.1 0.0
11/04:00pm 31.7 36.3 25.3 69 4.5 NNW 11 19 6 10 1004.3 1004.1 0.0
11/03:30pm 32.0 36.4 25.1 67 4.9 NNW 11 17 6 9 1004.3 1004.1 0.0

Other Formats:

Comma delimited format used in spreadsheet applications
http://www.bom.gov.au/fwo/IDD60801/IDD60801.94139.axf

JavaScript Object Notation format (JSON) in row-major order
http://www.bom.gov.au/fwo/IDD60801/IDD60801.94139.json